sensor_id;sensor_type;location;lat;lon;timestamp;P1;durP1;ratioP1;P2;durP2;ratioP2
32734;SDS011;19112;51.076;3.706;2024-02-15T00:02:14;14.25;;;4.97;;
32734;SDS011;19112;51.076;3.706;2024-02-15T00:04:42;22.60;;;4.97;;
32734;SDS011;19112;51.076;3.706;2024-02-15T00:07:09;23.02;;;5.18;;
32734;SDS011;19112;51.076;3.706;2024-02-15T00:09:36;20.38;;;4.93;;
32734;SDS011;19112;51.076;3.706;2024-02-15T00:12:04;19.38;;;5.35;;
32734;SDS011;19112;51.076;3.706;2024-02-15T00:14:30;14.70;;;4.43;;
32734;SDS011;19112;51.076;3.706;2024-02-15T00:16:56;19.63;;;4.68;;
32734;SDS011;19112;51.076;3.706;2024-02-15T00:19:23;18.52;;;5.53;;
32734;SDS011;19112;51.076;3.706;2024-02-15T00:21:51;20.85;;;5.00;;
32734;SDS011;19112;51.076;3.706;2024-02-15T00:24:18;17.92;;;5.05;;
32734;SDS011;19112;51.076;3.706;2024-02-15T00:26:45;22.25;;;4.60;;
32734;SDS011;19112;51.076;3.706;2024-02-15T00:29:12;18.63;;;4.55;;
32734;SDS011;19112;51.076;3.706;2024-02-15T00:31:39;22.48;;;5.15;;
32734;SDS011;19112;51.076;3.706;2024-02-15T00:34:05;19.63;;;4.40;;
32734;SDS011;19112;51.076;3.706;2024-02-15T00:36:32;17.65;;;4.45;;
32734;SDS011;19112;51.076;3.706;2024-02-15T00:38:59;18.45;;;4.20;;
32734;SDS011;19112;51.076;3.706;2024-02-15T00:41:25;15.93;;;4.68;;
32734;SDS011;19112;51.076;3.706;2024-02-15T00:43:51;25.23;;;5.95;;
32734;SDS011;19112;51.076;3.706;2024-02-15T00:46:17;19.23;;;5.05;;
32734;SDS011;19112;51.076;3.706;2024-02-15T00:48:43;15.80;;;4.90;;
32734;SDS011;19112;51.076;3.706;2024-02-15T00:51:09;24.17;;;5.20;;
32734;SDS011;19112;51.076;3.706;2024-02-15T00:53:35;16.63;;;5.32;;
32734;SDS011;19112;51.076;3.706;2024-02-15T00:56:01;18.08;;;4.90;;
32734;SDS011;19112;51.076;3.706;2024-02-15T00:58:28;19.55;;;4.85;;
32734;SDS011;19112;51.076;3.706;2024-02-15T01:00:56;24.25;;;4.93;;
32734;SDS011;19112;51.076;3.706;2024-02-15T01:03:22;18.48;;;4.68;;
32734;SDS011;19112;51.076;3.706;2024-02-15T01:05:49;18.10;;;4.80;;
32734;SDS011;19112;51.076;3.706;2024-02-15T01:08:16;17.35;;;5.07;;
32734;SDS011;19112;51.076;3.706;2024-02-15T01:10:41;17.42;;;5.28;;
32734;SDS011;19112;51.076;3.706;2024-02-15T01:13:07;14.80;;;4.60;;
32734;SDS011;19112;51.076;3.706;2024-02-15T01:15:35;13.73;;;4.63;;
32734;SDS011;19112;51.076;3.706;2024-02-15T01:18:03;16.08;;;4.60;;
32734;SDS011;19112;51.076;3.706;2024-02-15T01:20:29;22.45;;;4.90;;
32734;SDS011;19112;51.076;3.706;2024-02-15T01:22:55;19.95;;;5.15;;
32734;SDS011;19112;51.076;3.706;2024-02-15T01:25:22;18.10;;;4.55;;
32734;SDS011;19112;51.076;3.706;2024-02-15T01:27:48;18.02;;;4.30;;
32734;SDS011;19112;51.076;3.706;2024-02-15T01:30:14;19.83;;;5.00;;
32734;SDS011;19112;51.076;3.706;2024-02-15T01:32:42;18.42;;;4.97;;
32734;SDS011;19112;51.076;3.706;2024-02-15T01:35:09;18.80;;;4.47;;
32734;SDS011;19112;51.076;3.706;2024-02-15T01:37:36;19.98;;;4.53;;
32734;SDS011;19112;51.076;3.706;2024-02-15T01:40:02;21.17;;;5.63;;
32734;SDS011;19112;51.076;3.706;2024-02-15T01:42:31;15.30;;;4.85;;
32734;SDS011;19112;51.076;3.706;2024-02-15T01:44:57;16.52;;;5.25;;
32734;SDS011;19112;51.076;3.706;2024-02-15T01:47:24;20.08;;;5.50;;
32734;SDS011;19112;51.076;3.706;2024-02-15T01:49:50;18.73;;;5.05;;
32734;SDS011;19112;51.076;3.706;2024-02-15T01:52:21;18.40;;;4.75;;
32734;SDS011;19112;51.076;3.706;2024-02-15T01:54:48;14.32;;;4.32;;
32734;SDS011;19112;51.076;3.706;2024-02-15T01:57:19;18.65;;;5.07;;
32734;SDS011;19112;51.076;3.706;2024-02-15T01:59:51;19.73;;;5.75;;
32734;SDS011;19112;51.076;3.706;2024-02-15T02:02:18;20.70;;;5.45;;
32734;SDS011;19112;51.076;3.706;2024-02-15T02:04:45;19.95;;;5.63;;
32734;SDS011;19112;51.076;3.706;2024-02-15T02:07:11;21.25;;;5.30;;
32734;SDS011;19112;51.076;3.706;2024-02-15T02:09:39;18.45;;;5.30;;
32734;SDS011;19112;51.076;3.706;2024-02-15T02:12:05;17.92;;;5.18;;
32734;SDS011;19112;51.076;3.706;2024-02-15T02:14:32;19.60;;;4.82;;
32734;SDS011;19112;51.076;3.706;2024-02-15T02:17:19;24.65;;;5.18;;
32734;SDS011;19112;51.076;3.706;2024-02-15T02:19:47;19.67;;;4.78;;
32734;SDS011;19112;51.076;3.706;2024-02-15T02:22:17;18.00;;;4.82;;
32734;SDS011;19112;51.076;3.706;2024-02-15T02:27:35;17.33;;;4.88;;
32734;SDS011;19112;51.076;3.706;2024-02-15T02:30:04;19.10;;;4.63;;
32734;SDS011;19112;51.076;3.706;2024-02-15T02:32:40;17.55;;;4.95;;
32734;SDS011;19112;51.076;3.706;2024-02-15T02:35:07;19.88;;;5.47;;
32734;SDS011;19112;51.076;3.706;2024-02-15T02:37:38;14.90;;;4.82;;
32734;SDS011;19112;51.076;3.706;2024-02-15T02:40:05;20.88;;;4.57;;
32734;SDS011;19112;51.076;3.706;2024-02-15T02:42:34;18.00;;;5.05;;
32734;SDS011;19112;51.076;3.706;2024-02-15T02:45:21;13.55;;;4.93;;
32734;SDS011;19112;51.076;3.706;2024-02-15T02:47:54;14.93;;;4.38;;
32734;SDS011;19112;51.076;3.706;2024-02-15T02:50:22;19.20;;;5.25;;
32734;SDS011;19112;51.076;3.706;2024-02-15T02:52:50;18.23;;;4.90;;
32734;SDS011;19112;51.076;3.706;2024-02-15T02:55:16;24.60;;;5.30;;
32734;SDS011;19112;51.076;3.706;2024-02-15T02:57:43;19.15;;;5.35;;
32734;SDS011;19112;51.076;3.706;2024-02-15T03:00:11;18.50;;;4.95;;
32734;SDS011;19112;51.076;3.706;2024-02-15T03:02:41;18.60;;;5.00;;
32734;SDS011;19112;51.076;3.706;2024-02-15T03:05:11;21.10;;;5.50;;
32734;SDS011;19112;51.076;3.706;2024-02-15T03:07:39;17.08;;;5.30;;
32734;SDS011;19112;51.076;3.706;2024-02-15T03:10:07;17.23;;;5.28;;
32734;SDS011;19112;51.076;3.706;2024-02-15T03:12:35;18.15;;;5.15;;
32734;SDS011;19112;51.076;3.706;2024-02-15T03:15:02;19.35;;;5.88;;
32734;SDS011;19112;51.076;3.706;2024-02-15T03:17:28;16.20;;;4.90;;
32734;SDS011;19112;51.076;3.706;2024-02-15T03:19:58;19.30;;;5.45;;
32734;SDS011;19112;51.076;3.706;2024-02-15T03:22:24;20.83;;;5.90;;
32734;SDS011;19112;51.076;3.706;2024-02-15T03:24:52;17.02;;;5.25;;
32734;SDS011;19112;51.076;3.706;2024-02-15T03:27:18;15.60;;;5.03;;
32734;SDS011;19112;51.076;3.706;2024-02-15T03:29:50;16.13;;;4.93;;
32734;SDS011;19112;51.076;3.706;2024-02-15T03:32:18;17.70;;;5.13;;
32734;SDS011;19112;51.076;3.706;2024-02-15T03:34:44;18.50;;;5.40;;
32734;SDS011;19112;51.076;3.706;2024-02-15T03:37:10;16.50;;;5.10;;
32734;SDS011;19112;51.076;3.706;2024-02-15T03:39:37;18.98;;;5.05;;
32734;SDS011;19112;51.076;3.706;2024-02-15T03:42:03;14.30;;;5.00;;
32734;SDS011;19112;51.076;3.706;2024-02-15T03:44:29;17.73;;;5.53;;
32734;SDS011;19112;51.076;3.706;2024-02-15T03:46:56;15.00;;;4.85;;
32734;SDS011;19112;51.076;3.706;2024-02-15T03:49:23;18.58;;;5.10;;
32734;SDS011;19112;51.076;3.706;2024-02-15T03:51:49;16.58;;;4.70;;
32734;SDS011;19112;51.076;3.706;2024-02-15T03:54:15;13.48;;;4.72;;
32734;SDS011;19112;51.076;3.706;2024-02-15T03:56:48;14.02;;;4.72;;
32734;SDS011;19112;51.076;3.706;2024-02-15T03:59:20;20.02;;;5.30;;
32734;SDS011;19112;51.076;3.706;2024-02-15T04:01:52;17.08;;;5.00;;
32734;SDS011;19112;51.076;3.706;2024-02-15T04:04:19;16.65;;;5.20;;
32734;SDS011;19112;51.076;3.706;2024-02-15T04:06:52;16.27;;;4.85;;
32734;SDS011;19112;51.076;3.706;2024-02-15T04:09:18;15.60;;;5.03;;
32734;SDS011;19112;51.076;3.706;2024-02-15T04:11:47;14.27;;;5.13;;
32734;SDS011;19112;51.076;3.706;2024-02-15T04:14:17;16.58;;;5.60;;
32734;SDS011;19112;51.076;3.706;2024-02-15T04:16:44;16.80;;;4.80;;
32734;SDS011;19112;51.076;3.706;2024-02-15T04:19:11;18.65;;;5.45;;
32734;SDS011;19112;51.076;3.706;2024-02-15T04:21:37;17.83;;;5.00;;
32734;SDS011;19112;51.076;3.706;2024-02-15T04:24:05;21.50;;;5.78;;
32734;SDS011;19112;51.076;3.706;2024-02-15T04:26:31;18.95;;;5.35;;
32734;SDS011;19112;51.076;3.706;2024-02-15T04:28:59;20.00;;;5.72;;
32734;SDS011;19112;51.076;3.706;2024-02-15T04:31:25;22.13;;;5.40;;
32734;SDS011;19112;51.076;3.706;2024-02-15T04:33:54;23.08;;;5.40;;
32734;SDS011;19112;51.076;3.706;2024-02-15T04:36:21;17.92;;;5.25;;
32734;SDS011;19112;51.076;3.706;2024-02-15T04:38:51;16.63;;;5.18;;
32734;SDS011;19112;51.076;3.706;2024-02-15T04:41:18;19.50;;;5.72;;
32734;SDS011;19112;51.076;3.706;2024-02-15T04:43:47;25.40;;;6.28;;
32734;SDS011;19112;51.076;3.706;2024-02-15T04:46:18;22.02;;;5.82;;
32734;SDS011;19112;51.076;3.706;2024-02-15T04:48:47;20.40;;;5.32;;
32734;SDS011;19112;51.076;3.706;2024-02-15T04:51:17;20.20;;;6.88;;
32734;SDS011;19112;51.076;3.706;2024-02-15T04:53:44;20.85;;;5.32;;
32734;SDS011;19112;51.076;3.706;2024-02-15T04:56:13;19.13;;;5.38;;
32734;SDS011;19112;51.076;3.706;2024-02-15T04:58:41;19.77;;;5.78;;
32734;SDS011;19112;51.076;3.706;2024-02-15T05:01:16;17.95;;;5.45;;
32734;SDS011;19112;51.076;3.706;2024-02-15T05:03:45;19.15;;;5.45;;
32734;SDS011;19112;51.076;3.706;2024-02-15T05:06:15;21.52;;;5.82;;
32734;SDS011;19112;51.076;3.706;2024-02-15T05:08:41;17.15;;;4.82;;
32734;SDS011;19112;51.076;3.706;2024-02-15T05:11:11;16.80;;;5.32;;
32734;SDS011;19112;51.076;3.706;2024-02-15T05:13:44;17.42;;;5.03;;
32734;SDS011;19112;51.076;3.706;2024-02-15T05:16:10;17.77;;;4.82;;
32734;SDS011;19112;51.076;3.706;2024-02-15T05:18:37;22.00;;;5.30;;
32734;SDS011;19112;51.076;3.706;2024-02-15T05:21:05;20.35;;;5.82;;
32734;SDS011;19112;51.076;3.706;2024-02-15T05:26:10;17.13;;;4.78;;
32734;SDS011;19112;51.076;3.706;2024-02-15T05:28:37;14.40;;;4.50;;
32734;SDS011;19112;51.076;3.706;2024-02-15T05:31:13;17.73;;;5.78;;
32734;SDS011;19112;51.076;3.706;2024-02-15T05:33:47;17.95;;;5.03;;
32734;SDS011;19112;51.076;3.706;2024-02-15T05:38:50;19.00;;;4.60;;
32734;SDS011;19112;51.076;3.706;2024-02-15T05:41:18;16.02;;;5.05;;
32734;SDS011;19112;51.076;3.706;2024-02-15T05:43:47;16.20;;;4.70;;
32734;SDS011;19112;51.076;3.706;2024-02-15T05:46:13;16.48;;;4.65;;
32734;SDS011;19112;51.076;3.706;2024-02-15T05:48:40;16.17;;;4.75;;
32734;SDS011;19112;51.076;3.706;2024-02-15T05:51:07;13.00;;;4.40;;
32734;SDS011;19112;51.076;3.706;2024-02-15T05:53:35;18.48;;;4.43;;
32734;SDS011;19112;51.076;3.706;2024-02-15T05:56:02;17.60;;;4.70;;
32734;SDS011;19112;51.076;3.706;2024-02-15T05:58:31;17.90;;;4.70;;
32734;SDS011;19112;51.076;3.706;2024-02-15T06:00:58;15.88;;;4.15;;
32734;SDS011;19112;51.076;3.706;2024-02-15T06:03:31;15.73;;;4.30;;
32734;SDS011;19112;51.076;3.706;2024-02-15T06:06:02;16.45;;;4.22;;
32734;SDS011;19112;51.076;3.706;2024-02-15T06:08:32;12.82;;;3.83;;
32734;SDS011;19112;51.076;3.706;2024-02-15T06:11:01;13.07;;;3.85;;
32734;SDS011;19112;51.076;3.706;2024-02-15T06:13:30;18.85;;;4.53;;
32734;SDS011;19112;51.076;3.706;2024-02-15T06:15:57;18.15;;;4.38;;
32734;SDS011;19112;51.076;3.706;2024-02-15T06:20:56;18.25;;;3.60;;
32734;SDS011;19112;51.076;3.706;2024-02-15T06:23:26;11.77;;;4.03;;
32734;SDS011;19112;51.076;3.706;2024-02-15T06:25:54;13.95;;;4.10;;
32734;SDS011;19112;51.076;3.706;2024-02-15T06:28:24;13.43;;;4.30;;
32734;SDS011;19112;51.076;3.706;2024-02-15T06:31:11;15.35;;;3.78;;
32734;SDS011;19112;51.076;3.706;2024-02-15T06:33:55;18.90;;;4.18;;
32734;SDS011;19112;51.076;3.706;2024-02-15T06:39:39;12.85;;;3.65;;
32734;SDS011;19112;51.076;3.706;2024-02-15T06:42:11;15.38;;;4.00;;
32734;SDS011;19112;51.076;3.706;2024-02-15T06:44:43;15.77;;;4.03;;
32734;SDS011;19112;51.076;3.706;2024-02-15T06:47:12;17.40;;;3.92;;
32734;SDS011;19112;51.076;3.706;2024-02-15T06:49:40;13.82;;;3.60;;
32734;SDS011;19112;51.076;3.706;2024-02-15T06:52:09;14.30;;;3.60;;
32734;SDS011;19112;51.076;3.706;2024-02-15T06:54:38;16.10;;;4.28;;
32734;SDS011;19112;51.076;3.706;2024-02-15T06:57:05;12.52;;;3.55;;
32734;SDS011;19112;51.076;3.706;2024-02-15T06:59:32;16.92;;;4.10;;
32734;SDS011;19112;51.076;3.706;2024-02-15T07:01:59;14.07;;;3.63;;
32734;SDS011;19112;51.076;3.706;2024-02-15T07:04:27;10.00;;;3.22;;
32734;SDS011;19112;51.076;3.706;2024-02-15T07:06:53;14.38;;;4.45;;
32734;SDS011;19112;51.076;3.706;2024-02-15T07:09:20;10.68;;;3.45;;
32734;SDS011;19112;51.076;3.706;2024-02-15T07:11:50;12.30;;;3.40;;
32734;SDS011;19112;51.076;3.706;2024-02-15T07:14:17;9.57;;;3.30;;
32734;SDS011;19112;51.076;3.706;2024-02-15T07:16:46;9.40;;;3.22;;
32734;SDS011;19112;51.076;3.706;2024-02-15T07:19:15;14.13;;;4.05;;
32734;SDS011;19112;51.076;3.706;2024-02-15T07:21:41;13.48;;;3.65;;
32734;SDS011;19112;51.076;3.706;2024-02-15T07:24:08;11.63;;;3.60;;
32734;SDS011;19112;51.076;3.706;2024-02-15T07:26:38;11.77;;;3.60;;
32734;SDS011;19112;51.076;3.706;2024-02-15T07:29:05;13.10;;;3.30;;
32734;SDS011;19112;51.076;3.706;2024-02-15T07:31:32;12.43;;;3.78;;
32734;SDS011;19112;51.076;3.706;2024-02-15T07:34:00;12.73;;;3.65;;
32734;SDS011;19112;51.076;3.706;2024-02-15T07:36:26;11.73;;;3.70;;
32734;SDS011;19112;51.076;3.706;2024-02-15T07:38:53;11.13;;;3.10;;
32734;SDS011;19112;51.076;3.706;2024-02-15T07:41:25;11.48;;;3.50;;
32734;SDS011;19112;51.076;3.706;2024-02-15T07:43:54;12.38;;;3.90;;
32734;SDS011;19112;51.076;3.706;2024-02-15T07:46:20;10.20;;;3.60;;
32734;SDS011;19112;51.076;3.706;2024-02-15T07:48:48;12.05;;;3.33;;
32734;SDS011;19112;51.076;3.706;2024-02-15T07:51:17;14.90;;;3.90;;
32734;SDS011;19112;51.076;3.706;2024-02-15T07:53:46;13.73;;;3.83;;
32734;SDS011;19112;51.076;3.706;2024-02-15T07:56:13;10.40;;;3.35;;
32734;SDS011;19112;51.076;3.706;2024-02-15T07:58:44;11.35;;;3.50;;
32734;SDS011;19112;51.076;3.706;2024-02-15T08:01:17;12.10;;;3.80;;
32734;SDS011;19112;51.076;3.706;2024-02-15T08:03:44;12.13;;;3.63;;
32734;SDS011;19112;51.076;3.706;2024-02-15T08:06:14;10.52;;;3.75;;
32734;SDS011;19112;51.076;3.706;2024-02-15T08:08:45;12.07;;;3.70;;
32734;SDS011;19112;51.076;3.706;2024-02-15T08:11:13;10.60;;;4.00;;
32734;SDS011;19112;51.076;3.706;2024-02-15T08:13:50;15.65;;;3.58;;
32734;SDS011;19112;51.076;3.706;2024-02-15T08:16:19;13.13;;;3.50;;
32734;SDS011;19112;51.076;3.706;2024-02-15T08:18:49;16.35;;;3.92;;
32734;SDS011;19112;51.076;3.706;2024-02-15T08:21:30;11.13;;;3.70;;
32734;SDS011;19112;51.076;3.706;2024-02-15T08:24:06;13.60;;;3.60;;
32734;SDS011;19112;51.076;3.706;2024-02-15T08:29:06;13.40;;;4.40;;
32734;SDS011;19112;51.076;3.706;2024-02-15T08:31:32;13.85;;;3.65;;
32734;SDS011;19112;51.076;3.706;2024-02-15T08:36:31;15.27;;;3.78;;
32734;SDS011;19112;51.076;3.706;2024-02-15T08:38:57;15.07;;;3.95;;
32734;SDS011;19112;51.076;3.706;2024-02-15T08:41:23;16.65;;;3.75;;
32734;SDS011;19112;51.076;3.706;2024-02-15T08:43:52;10.82;;;3.33;;
32734;SDS011;19112;51.076;3.706;2024-02-15T08:46:19;16.83;;;4.10;;
32734;SDS011;19112;51.076;3.706;2024-02-15T08:48:48;14.25;;;3.97;;
32734;SDS011;19112;51.076;3.706;2024-02-15T08:51:13;17.17;;;4.47;;
32734;SDS011;19112;51.076;3.706;2024-02-15T08:53:42;14.98;;;4.22;;
32734;SDS011;19112;51.076;3.706;2024-02-15T08:56:08;13.82;;;4.03;;
32734;SDS011;19112;51.076;3.706;2024-02-15T08:58:36;13.45;;;4.13;;
32734;SDS011;19112;51.076;3.706;2024-02-15T09:01:04;10.60;;;3.60;;
32734;SDS011;19112;51.076;3.706;2024-02-15T09:03:32;13.50;;;3.63;;
32734;SDS011;19112;51.076;3.706;2024-02-15T09:05:58;16.55;;;4.20;;
32734;SDS011;19112;51.076;3.706;2024-02-15T09:08:28;10.73;;;3.63;;
32734;SDS011;19112;51.076;3.706;2024-02-15T09:10:55;14.95;;;3.72;;
32734;SDS011;19112;51.076;3.706;2024-02-15T09:13:29;20.02;;;4.97;;
32734;SDS011;19112;51.076;3.706;2024-02-15T09:15:55;12.90;;;3.80;;
32734;SDS011;19112;51.076;3.706;2024-02-15T09:18:21;13.75;;;3.60;;
32734;SDS011;19112;51.076;3.706;2024-02-15T09:20:48;12.38;;;3.28;;
32734;SDS011;19112;51.076;3.706;2024-02-15T09:23:20;11.88;;;3.45;;
32734;SDS011;19112;51.076;3.706;2024-02-15T09:25:48;10.15;;;3.67;;
32734;SDS011;19112;51.076;3.706;2024-02-15T09:28:17;11.13;;;3.45;;
32734;SDS011;19112;51.076;3.706;2024-02-15T09:30:47;10.65;;;3.33;;
32734;SDS011;19112;51.076;3.706;2024-02-15T09:33:16;13.77;;;3.83;;
32734;SDS011;19112;51.076;3.706;2024-02-15T09:35:46;12.90;;;3.53;;
32734;SDS011;19112;51.076;3.706;2024-02-15T09:38:13;12.88;;;3.40;;
32734;SDS011;19112;51.076;3.706;2024-02-15T09:40:41;13.00;;;3.35;;
32734;SDS011;19112;51.076;3.706;2024-02-15T09:43:09;18.00;;;4.45;;
32734;SDS011;19112;51.076;3.706;2024-02-15T09:45:40;14.85;;;3.38;;
32734;SDS011;19112;51.076;3.706;2024-02-15T09:48:08;12.40;;;3.70;;
32734;SDS011;19112;51.076;3.706;2024-02-15T09:50:39;12.25;;;3.78;;
32734;SDS011;19112;51.076;3.706;2024-02-15T09:53:10;11.68;;;3.70;;
32734;SDS011;19112;51.076;3.706;2024-02-15T09:55:37;12.68;;;3.88;;
32734;SDS011;19112;51.076;3.706;2024-02-15T09:58:07;9.20;;;3.15;;
32734;SDS011;19112;51.076;3.706;2024-02-15T10:00:37;14.23;;;3.70;;
32734;SDS011;19112;51.076;3.706;2024-02-15T10:03:05;19.95;;;4.22;;
32734;SDS011;19112;51.076;3.706;2024-02-15T10:05:32;9.57;;;3.00;;
32734;SDS011;19112;51.076;3.706;2024-02-15T10:07:58;8.35;;;2.90;;
32734;SDS011;19112;51.076;3.706;2024-02-15T10:10:27;11.77;;;3.05;;
32734;SDS011;19112;51.076;3.706;2024-02-15T10:12:54;11.35;;;3.00;;
32734;SDS011;19112;51.076;3.706;2024-02-15T10:15:27;11.98;;;2.72;;
32734;SDS011;19112;51.076;3.706;2024-02-15T10:17:56;12.73;;;3.08;;
32734;SDS011;19112;51.076;3.706;2024-02-15T10:20:26;10.50;;;2.70;;
32734;SDS011;19112;51.076;3.706;2024-02-15T10:22:52;13.52;;;3.13;;
32734;SDS011;19112;51.076;3.706;2024-02-15T10:25:26;10.13;;;2.72;;
32734;SDS011;19112;51.076;3.706;2024-02-15T10:28:03;13.15;;;3.40;;
32734;SDS011;19112;51.076;3.706;2024-02-15T10:30:35;11.90;;;3.20;;
32734;SDS011;19112;51.076;3.706;2024-02-15T10:33:09;9.65;;;3.22;;
32734;SDS011;19112;51.076;3.706;2024-02-15T10:35:36;12.93;;;3.58;;
32734;SDS011;19112;51.076;3.706;2024-02-15T10:38:09;10.95;;;3.30;;
32734;SDS011;19112;51.076;3.706;2024-02-15T10:40:39;9.45;;;3.22;;
32734;SDS011;19112;51.076;3.706;2024-02-15T10:43:09;9.52;;;2.72;;
32734;SDS011;19112;51.076;3.706;2024-02-15T10:45:39;12.43;;;3.13;;
32734;SDS011;19112;51.076;3.706;2024-02-15T10:48:07;10.88;;;2.83;;
32734;SDS011;19112;51.076;3.706;2024-02-15T10:50:36;9.63;;;2.90;;
32734;SDS011;19112;51.076;3.706;2024-02-15T10:53:47;10.15;;;2.83;;
32734;SDS011;19112;51.076;3.706;2024-02-15T10:58:31;10.82;;;2.97;;
32734;SDS011;19112;51.076;3.706;2024-02-15T11:01:03;9.50;;;2.92;;
32734;SDS011;19112;51.076;3.706;2024-02-15T11:03:41;11.65;;;3.10;;
32734;SDS011;19112;51.076;3.706;2024-02-15T11:06:28;8.30;;;2.85;;
32734;SDS011;19112;51.076;3.706;2024-02-15T11:08:59;9.27;;;2.70;;
32734;SDS011;19112;51.076;3.706;2024-02-15T11:11:31;10.02;;;2.88;;
32734;SDS011;19112;51.076;3.706;2024-02-15T11:17:01;11.15;;;3.00;;
32734;SDS011;19112;51.076;3.706;2024-02-15T11:22:16;10.40;;;2.67;;
32734;SDS011;19112;51.076;3.706;2024-02-15T11:24:49;16.27;;;3.33;;
32734;SDS011;19112;51.076;3.706;2024-02-15T11:27:30;10.70;;;2.97;;
32734;SDS011;19112;51.076;3.706;2024-02-15T11:29:57;10.07;;;3.05;;
32734;SDS011;19112;51.076;3.706;2024-02-15T11:32:42;8.13;;;2.80;;
32734;SDS011;19112;51.076;3.706;2024-02-15T11:35:13;9.20;;;3.20;;
32734;SDS011;19112;51.076;3.706;2024-02-15T11:40:26;9.23;;;2.60;;
32734;SDS011;19112;51.076;3.706;2024-02-15T11:45:26;9.95;;;2.78;;
32734;SDS011;19112;51.076;3.706;2024-02-15T11:47:58;11.73;;;2.55;;
32734;SDS011;19112;51.076;3.706;2024-02-15T11:50:27;11.30;;;2.70;;
32734;SDS011;19112;51.076;3.706;2024-02-15T11:53:02;7.47;;;2.55;;
32734;SDS011;19112;51.076;3.706;2024-02-15T11:55:36;11.38;;;2.97;;
32734;SDS011;19112;51.076;3.706;2024-02-15T11:58:03;15.38;;;2.80;;
32734;SDS011;19112;51.076;3.706;2024-02-15T12:00:42;8.38;;;2.88;;
32734;SDS011;19112;51.076;3.706;2024-02-15T12:03:27;11.25;;;2.63;;
32734;SDS011;19112;51.076;3.706;2024-02-15T12:06:17;9.73;;;3.20;;
32734;SDS011;19112;51.076;3.706;2024-02-15T12:09:01;12.85;;;2.92;;
32734;SDS011;19112;51.076;3.706;2024-02-15T12:11:47;13.63;;;3.50;;
32734;SDS011;19112;51.076;3.706;2024-02-15T12:14:41;10.27;;;3.30;;
32734;SDS011;19112;51.076;3.706;2024-02-15T12:17:26;9.73;;;2.90;;
32734;SDS011;19112;51.076;3.706;2024-02-15T12:20:10;11.07;;;3.00;;
32734;SDS011;19112;51.076;3.706;2024-02-15T12:22:47;11.15;;;3.25;;
32734;SDS011;19112;51.076;3.706;2024-02-15T12:25:15;6.25;;;2.65;;
32734;SDS011;19112;51.076;3.706;2024-02-15T12:27:46;10.65;;;3.15;;
32734;SDS011;19112;51.076;3.706;2024-02-15T12:30:20;11.90;;;3.03;;
32734;SDS011;19112;51.076;3.706;2024-02-15T12:32:48;9.85;;;3.08;;
32734;SDS011;19112;51.076;3.706;2024-02-15T12:35:16;13.13;;;3.30;;
32734;SDS011;19112;51.076;3.706;2024-02-15T12:40:36;8.43;;;2.90;;
32734;SDS011;19112;51.076;3.706;2024-02-15T12:43:05;15.15;;;3.03;;
32734;SDS011;19112;51.076;3.706;2024-02-15T12:45:36;10.57;;;3.22;;
32734;SDS011;19112;51.076;3.706;2024-02-15T12:48:03;10.60;;;3.97;;
32734;SDS011;19112;51.076;3.706;2024-02-15T12:50:31;12.63;;;2.80;;
32734;SDS011;19112;51.076;3.706;2024-02-15T12:52:58;8.15;;;2.60;;
32734;SDS011;19112;51.076;3.706;2024-02-15T12:55:30;9.25;;;2.75;;
32734;SDS011;19112;51.076;3.706;2024-02-15T12:58:03;11.73;;;3.25;;
32734;SDS011;19112;51.076;3.706;2024-02-15T13:00:34;8.82;;;3.05;;
32734;SDS011;19112;51.076;3.706;2024-02-15T13:03:04;19.10;;;4.47;;
32734;SDS011;19112;51.076;3.706;2024-02-15T13:05:34;11.77;;;2.90;;
32734;SDS011;19112;51.076;3.706;2024-02-15T13:08:03;7.65;;;2.50;;
32734;SDS011;19112;51.076;3.706;2024-02-15T13:10:38;11.00;;;2.75;;
32734;SDS011;19112;51.076;3.706;2024-02-15T13:13:04;7.57;;;2.95;;
32734;SDS011;19112;51.076;3.706;2024-02-15T13:15:31;11.32;;;2.53;;
32734;SDS011;19112;51.076;3.706;2024-02-15T13:18:01;11.95;;;2.95;;
32734;SDS011;19112;51.076;3.706;2024-02-15T13:20:29;11.02;;;2.63;;
32734;SDS011;19112;51.076;3.706;2024-02-15T13:23:09;9.82;;;2.60;;
32734;SDS011;19112;51.076;3.706;2024-02-15T13:25:48;11.27;;;2.50;;
32734;SDS011;19112;51.076;3.706;2024-02-15T13:28:15;8.30;;;2.63;;
32734;SDS011;19112;51.076;3.706;2024-02-15T13:30:42;9.43;;;4.07;;
32734;SDS011;19112;51.076;3.706;2024-02-15T13:33:11;9.55;;;3.00;;
32734;SDS011;19112;51.076;3.706;2024-02-15T13:35:39;8.43;;;2.60;;
32734;SDS011;19112;51.076;3.706;2024-02-15T13:38:06;10.40;;;2.70;;
32734;SDS011;19112;51.076;3.706;2024-02-15T13:40:34;8.18;;;2.63;;
32734;SDS011;19112;51.076;3.706;2024-02-15T13:43:00;15.02;;;3.00;;
32734;SDS011;19112;51.076;3.706;2024-02-15T13:45:41;14.57;;;3.70;;
32734;SDS011;19112;51.076;3.706;2024-02-15T13:48:09;15.50;;;3.97;;
32734;SDS011;19112;51.076;3.706;2024-02-15T13:50:38;13.85;;;4.30;;
32734;SDS011;19112;51.076;3.706;2024-02-15T13:53:05;14.30;;;4.95;;
32734;SDS011;19112;51.076;3.706;2024-02-15T13:55:31;18.15;;;5.30;;
32734;SDS011;19112;51.076;3.706;2024-02-15T13:57:57;17.63;;;4.93;;
32734;SDS011;19112;51.076;3.706;2024-02-15T14:00:25;19.33;;;5.03;;
32734;SDS011;19112;51.076;3.706;2024-02-15T14:02:55;24.15;;;6.05;;
32734;SDS011;19112;51.076;3.706;2024-02-15T14:05:27;18.35;;;5.72;;
32734;SDS011;19112;51.076;3.706;2024-02-15T14:07:58;17.87;;;4.43;;
32734;SDS011;19112;51.076;3.706;2024-02-15T14:10:30;17.10;;;4.70;;
32734;SDS011;19112;51.076;3.706;2024-02-15T14:13:00;16.67;;;4.57;;
32734;SDS011;19112;51.076;3.706;2024-02-15T14:15:28;16.63;;;4.30;;
32734;SDS011;19112;51.076;3.706;2024-02-15T14:17:55;14.38;;;4.00;;
32734;SDS011;19112;51.076;3.706;2024-02-15T14:20:21;14.70;;;4.00;;
32734;SDS011;19112;51.076;3.706;2024-02-15T14:22:49;14.48;;;3.88;;
32734;SDS011;19112;51.076;3.706;2024-02-15T14:25:22;16.50;;;3.90;;
32734;SDS011;19112;51.076;3.706;2024-02-15T14:27:50;11.40;;;3.47;;
32734;SDS011;19112;51.076;3.706;2024-02-15T14:30:20;13.07;;;3.42;;
32734;SDS011;19112;51.076;3.706;2024-02-15T14:33:05;11.57;;;2.90;;
32734;SDS011;19112;51.076;3.706;2024-02-15T14:35:39;10.95;;;3.47;;
32734;SDS011;19112;51.076;3.706;2024-02-15T14:38:07;9.32;;;3.05;;
32734;SDS011;19112;51.076;3.706;2024-02-15T14:43:10;9.90;;;2.73;;
32734;SDS011;19112;51.076;3.706;2024-02-15T14:45:38;13.80;;;3.17;;
32734;SDS011;19112;51.076;3.706;2024-02-15T14:48:08;8.70;;;2.88;;
32734;SDS011;19112;51.076;3.706;2024-02-15T14:50:41;15.02;;;4.35;;
32734;SDS011;19112;51.076;3.706;2024-02-15T14:53:08;14.65;;;3.50;;
32734;SDS011;19112;51.076;3.706;2024-02-15T14:55:34;15.63;;;3.70;;
32734;SDS011;19112;51.076;3.706;2024-02-15T14:58:03;20.20;;;4.22;;
32734;SDS011;19112;51.076;3.706;2024-02-15T15:00:36;17.42;;;4.78;;
32734;SDS011;19112;51.076;3.706;2024-02-15T15:03:06;17.45;;;5.20;;
32734;SDS011;19112;51.076;3.706;2024-02-15T15:05:32;18.45;;;5.05;;
32734;SDS011;19112;51.076;3.706;2024-02-15T15:08:17;21.65;;;4.93;;
32734;SDS011;19112;51.076;3.706;2024-02-15T15:11:02;19.60;;;5.40;;
32734;SDS011;19112;51.076;3.706;2024-02-15T15:13:46;21.08;;;5.07;;
32734;SDS011;19112;51.076;3.706;2024-02-15T15:16:12;21.52;;;5.35;;
32734;SDS011;19112;51.076;3.706;2024-02-15T15:18:42;19.58;;;5.05;;
32734;SDS011;19112;51.076;3.706;2024-02-15T15:21:11;22.08;;;5.43;;
32734;SDS011;19112;51.076;3.706;2024-02-15T15:23:37;19.00;;;4.95;;
32734;SDS011;19112;51.076;3.706;2024-02-15T15:26:04;21.33;;;5.95;;
32734;SDS011;19112;51.076;3.706;2024-02-15T15:28:31;20.05;;;5.30;;